^^
Saratoga-Weather Station Historical Data
Daily Summary for January 10, 2021 Units:  Metric    English   Both
Daily Weekly Monthly Yearly Custom
  High: Low: Average:
Temperature: 6.8 °C -0.4 °C 2.4 °C
Dew Point: 4.5 °C -1 °C 1.5 °C
Humidity: 97% 84% 94%
Wind Speed: 4.7km/h 0km/h 0.2km/h
Wind Gust: 6.4km/h - -
Wind- - ESE
Pressure: 1025.4 hPa 1023.7 hPa -
Precipitation: 0.2 mm    
Historical Graphs
 
 
Tabular Data for January 10, 2021
Time Temperature Dew Point Pressure Wind Wind Speed Wind Gust Humidity Rainfall Rate (Hourly) solar
00:01 2.4 °C 1.7 °C 1025.4 hPa Calm     95% 0.0 mm 0 W/m2
00:06 2.3 °C 1.6 °C 1025.1 hPa Calm     95% 0.0 mm 0 W/m2
00:11 2.3 °C 1.6 °C 1025.1 hPa Calm     95% 0.0 mm 0 W/m2
00:16 2.2 °C 1.5 °C 1025.4 hPa Calm     95% 0.0 mm 0 W/m2
00:21 2.1 °C 1.2 °C 1025.1 hPa Calm     94% 0.0 mm 0 W/m2
00:26 2 °C 1.3 °C 1025.1 hPa Calm     95% 0.0 mm 0 W/m2
00:31 2 °C 1.3 °C 1025.1 hPa Calm     95% 0.0 mm 0 W/m2
00:37 1.9 °C 1.2 °C 1025.1 hPa Calm     95% 0.0 mm 0 W/m2
00:42 1.8 °C 1.1 °C 1025.1 hPa Calm     95% 0.0 mm 0 W/m2
00:47 1.8 °C 1.1 °C 1025.1 hPa Calm     95% 0.0 mm 0 W/m2
00:52 1.7 °C 1 °C 1025.1 hPa Calm     95% 0.0 mm 0 W/m2
00:57 1.6 °C 0.9 °C 1025.4 hPa Calm     95% 0.0 mm 0 W/m2
01:02 1.5 °C 0.8 °C 1025.4 hPa Calm     95% 0.0 mm 0 W/m2
01:07 1.6 °C 0.9 °C 1025.4 hPa Calm     95% 0.0 mm 0 W/m2
01:12 1.7 °C 1 °C 1025.1 hPa Calm     95% 0.0 mm 0 W/m2
01:17 1.8 °C 1.1 °C 1025.1 hPa Calm     95% 0.0 mm 0 W/m2
01:22 1.8 °C 1.1 °C 1025.1 hPa Calm     95% 0.0 mm 0 W/m2
01:27 1.8 °C 1.1 °C 1025.1 hPa Calm     95% 0.0 mm 0 W/m2
01:32 1.7 °C 1 °C 1025.1 hPa Calm     95% 0.0 mm 0 W/m2
01:37 1.6 °C 0.9 °C 1025.1 hPa Calm   1.6 km/h 95% 0.0 mm 0 W/m2
01:42 1.6 °C 0.9 °C 1025.1 hPa Calm     95% 0.0 mm 0 W/m2
01:47 1.5 °C 0.8 °C 1025.1 hPa Calm     95% 0.0 mm 0 W/m2
01:52 1.4 °C 0.7 °C 1025.1 hPa Calm     95% 0.0 mm 0 W/m2
01:57 1.3 °C 0.6 °C 1025.1 hPa Calm     95% 0.0 mm 0 W/m2
02:02 1.3 °C 0.6 °C 1025.1 hPa Calm     95% 0.0 mm 0 W/m2
02:07 1.3 °C 0.6 °C 1025.1 hPa Calm     95% 0.0 mm 0 W/m2
02:12 1.3 °C 0.6 °C 1025.1 hPa Calm     95% 0.0 mm 0 W/m2
02:17 1.3 °C 0.6 °C 1025.1 hPa Calm     95% 0.0 mm 0 W/m2
02:22 1.3 °C 0.7 °C 1025.1 hPa Calm     96% 0.0 mm 0 W/m2
02:27 1.4 °C 0.8 °C 1025.1 hPa Calm     96% 0.0 mm 0 W/m2
02:32 1.5 °C 0.9 °C 1025.1 hPa Calm     96% 0.0 mm 0 W/m2
02:37 1.4 °C 0.8 °C 1025.4 hPa Calm     96% 0.0 mm 0 W/m2
02:42 1.3 °C 0.6 °C 1025.4 hPa Calm     95% 0.0 mm 0 W/m2
02:47 1.3 °C 0.7 °C 1025.4 hPa Calm     96% 0.0 mm 0 W/m2
02:52 1.3 °C 0.7 °C 1025.4 hPa Calm     96% 0.0 mm 0 W/m2
02:57 1.3 °C 0.7 °C 1025.4 hPa Calm     96% 0.0 mm 0 W/m2
03:02 1.3 °C 0.7 °C 1025.4 hPa Calm     96% 0.0 mm 0 W/m2
03:07 1.2 °C 0.5 °C 1025.4 hPa Calm     95% 0.0 mm 0 W/m2
03:12 1.1 °C 0.4 °C 1025.4 hPa Calm     95% 0.0 mm 0 W/m2
03:17 1.1 °C 0.4 °C 1025.4 hPa Calm     95% 0.0 mm 0 W/m2
03:22 0.9 °C 0.2 °C 1025.4 hPa Calm     95% 0.0 mm 0 W/m2
03:27 0.9 °C 0.3 °C 1025.1 hPa Calm     96% 0.0 mm 0 W/m2
03:32 0.8 °C 0.1 °C 1025.1 hPa Calm     95% 0.0 mm 0 W/m2
03:37 0.7 °C 0 °C 1025.1 hPa Calm     95% 0.0 mm 0 W/m2
03:42 0.6 °C -0.1 °C 1025.1 hPa Calm     95% 0.0 mm 0 W/m2
03:47 0.5 °C -0.2 °C 1024.7 hPa Calm     95% 0.0 mm 0 W/m2
03:52 0.4 °C -0.3 °C 1024.7 hPa Calm     95% 0.0 mm 0 W/m2
03:57 0.3 °C -0.4 °C 1024.7 hPa Calm     95% 0.0 mm 0 W/m2
04:02 0.3 °C -0.3 °C 1024.7 hPa Calm     96% 0.0 mm 0 W/m2
04:07 0.3 °C -0.3 °C 1024.4 hPa Calm     96% 0.0 mm 0 W/m2
04:12 0.2 °C -0.5 °C 1024.4 hPa Calm     95% 0.0 mm 0 W/m2
04:17 0.2 °C -0.4 °C 1024.4 hPa Calm     96% 0.0 mm 0 W/m2
04:22 0.2 °C -0.4 °C 1024.7 hPa Calm     96% 0.0 mm 0 W/m2
04:27 0.3 °C -0.3 °C 1024.7 hPa Calm     96% 0.0 mm 0 W/m2
04:32 0.3 °C -0.3 °C 1024.4 hPa Calm     96% 0.0 mm 0 W/m2
04:37 0.3 °C -0.3 °C 1024.4 hPa Calm     96% 0.0 mm 0 W/m2
04:42 0.3 °C -0.3 °C 1024.4 hPa Calm     96% 0.0 mm 0 W/m2
04:47 0.3 °C -0.3 °C 1024.4 hPa Calm     96% 0.0 mm 0 W/m2
04:52 0.3 °C -0.3 °C 1024.0 hPa Calm     96% 0.0 mm 0 W/m2
04:57 0.2 °C -0.4 °C 1024.4 hPa Calm     96% 0.0 mm 0 W/m2
05:02 0.2 °C -0.4 °C 1024.0 hPa Calm     96% 0.0 mm 0 W/m2
05:07 0.1 °C -0.5 °C 1024.0 hPa Calm     96% 0.0 mm 0 W/m2
05:12 0.1 °C -0.5 °C 1024.0 hPa Calm     96% 0.0 mm 0 W/m2
05:17 0.1 °C -0.5 °C 1024.0 hPa Calm   1.6 km/h 96% 0.0 mm 0 W/m2
05:22 0.1 °C -0.5 °C 1024.0 hPa Calm     96% 0.0 mm 0 W/m2
05:27 0.1 °C -0.5 °C 1023.7 hPa Calm     96% 0.0 mm 0 W/m2
05:32 0.1 °C -0.5 °C 1023.7 hPa Calm     96% 0.0 mm 0 W/m2
05:37 0 °C -0.6 °C 1023.7 hPa Calm     96% 0.0 mm 0 W/m2
05:42 0 °C -0.6 °C 1024.0 hPa Calm     96% 0.0 mm 0 W/m2
05:48 -0.1 °C -0.7 °C 1024.0 hPa Calm   3.2 km/h 96% 0.0 mm 0 W/m2
05:53 0 °C -0.6 °C 1024.0 hPa Calm     96% 0.0 mm 0 W/m2
05:58 0 °C -0.6 °C 1024.4 hPa Calm     96% 0.0 mm 0 W/m2
06:03 -0.1 °C -0.7 °C 1024.4 hPa Calm     96% 0.0 mm 0 W/m2
06:08 -0.1 °C -0.7 °C 1024.4 hPa Calm     96% 0.0 mm 0 W/m2
06:13 -0.1 °C -0.7 °C 1024.4 hPa Calm     96% 0.0 mm 0 W/m2
06:18 -0.1 °C -0.7 °C 1024.4 hPa Calm     96% 0.0 mm 0 W/m2
06:23 -0.1 °C -0.7 °C 1024.0 hPa Calm     96% 0.0 mm 0 W/m2
06:28 -0.1 °C -0.7 °C 1024.0 hPa Calm     96% 0.0 mm 0 W/m2
06:33 -0.2 °C -0.8 °C 1024.0 hPa Calm     96% 0.0 mm 0 W/m2
06:38 -0.2 °C -0.8 °C 1024.4 hPa Calm     96% 0.0 mm 0 W/m2
06:43 -0.2 °C -0.8 °C 1024.4 hPa Calm     96% 0.0 mm 0 W/m2
06:48 -0.2 °C -0.8 °C 1024.4 hPa Calm     96% 0.0 mm 0 W/m2
06:53 -0.2 °C -0.8 °C 1024.7 hPa Calm     96% 0.0 mm 0 W/m2
06:58 -0.2 °C -0.8 °C 1024.4 hPa Calm     96% 0.0 mm 0 W/m2
07:03 -0.2 °C -0.8 °C 1024.4 hPa Calm     96% 0.0 mm 0 W/m2
07:08 -0.3 °C -0.9 °C 1024.4 hPa Calm     96% 0.0 mm 0 W/m2
07:13 -0.3 °C -0.9 °C 1024.4 hPa Calm     96% 0.0 mm 0 W/m2
07:18 -0.4 °C -1 °C 1024.4 hPa Calm     96% 0.0 mm 0 W/m2
07:23 -0.4 °C -1 °C 1024.0 hPa Calm     96% 0.0 mm 0 W/m2
07:28 -0.4 °C -1 °C 1024.0 hPa Calm     96% 0.0 mm 0 W/m2
07:33 -0.4 °C -1 °C 1024.0 hPa Calm     96% 0.0 mm 0 W/m2
07:38 -0.4 °C -1 °C 1024.0 hPa Calm     96% 0.0 mm 0 W/m2
07:43 -0.3 °C -0.9 °C 1024.0 hPa Calm     96% 0.0 mm 0 W/m2
07:48 -0.3 °C -0.9 °C 1024.0 hPa Calm     96% 0.0 mm 5 W/m2
07:53 -0.2 °C -0.8 °C 1024.0 hPa Calm     96% 0.0 mm 5 W/m2
07:58 -0.2 °C -0.8 °C 1024.4 hPa Calm     96% 0.0 mm 7 W/m2
08:03 -0.2 °C -0.8 °C 1024.4 hPa Calm     96% 0.0 mm 9 W/m2
08:08 -0.2 °C -0.8 °C 1024.4 hPa Calm     96% 0.0 mm 11 W/m2
08:13 -0.2 °C -0.8 °C 1024.4 hPa Calm     96% 0.0 mm 12 W/m2
08:18 -0.2 °C -0.8 °C 1024.7 hPa Calm     96% 0.0 mm 18 W/m2
08:23 -0.2 °C -0.8 °C 1024.7 hPa Calm     96% 0.0 mm 19 W/m2
08:28 -0.2 °C -0.8 °C 1024.7 hPa Calm     96% 0.0 mm 23 W/m2
08:33 -0.2 °C -0.8 °C 1024.7 hPa Calm     96% 0.0 mm 25 W/m2
08:38 -0.2 °C -0.8 °C 1025.1 hPa Calm     96% 0.0 mm 26 W/m2
08:43 -0.1 °C -0.7 °C 1025.1 hPa Calm     96% 0.0 mm 28 W/m2
08:48 -0.2 °C -0.8 °C 1025.1 hPa Calm     96% 0.0 mm 35 W/m2
08:53 -0.1 °C -0.7 °C 1025.4 hPa Calm     96% 0.0 mm 40 W/m2
08:58 -0.1 °C -0.7 °C 1025.4 hPa Calm     96% 0.0 mm 47 W/m2
09:03 0 °C -0.6 °C 1025.4 hPa Calm     96% 0.0 mm 51 W/m2
09:08 0.1 °C -0.3 °C 1025.4 hPa Calm     97% 0.0 mm 56 W/m2
09:13 0.1 °C -0.5 °C 1025.4 hPa SW 1.6 km/h 1.6 km/h 96% 0.0 mm 62 W/m2
09:18 0.2 °C -0.4 °C 1025.4 hPa Calm     96% 0.0 mm 70 W/m2
09:23 0.2 °C -0.4 °C 1025.1 hPa Calm     96% 0.0 mm 77 W/m2
09:28 0.3 °C -0.1 °C 1025.1 hPa Calm     97% 0.0 mm 90 W/m2
09:33 0.3 °C -0.1 °C 1025.1 hPa Calm     97% 0.0 mm 88 W/m2
09:38 0.4 °C 0 °C 1025.1 hPa Calm     97% 0.0 mm 79 W/m2
09:43 0.4 °C 0 °C 1025.1 hPa Calm     97% 0.0 mm 77 W/m2
09:48 0.5 °C 0.1 °C 1025.1 hPa Calm     97% 0.0 mm 72 W/m2
09:53 0.6 °C 0.2 °C 1025.1 hPa Calm     97% 0.0 mm 69 W/m2
09:58 0.8 °C 0.4 °C 1025.1 hPa Calm     97% 0.0 mm 77 W/m2
10:03 0.9 °C 0.5 °C 1025.1 hPa Calm     97% 0.0 mm 86 W/m2
10:08 1.1 °C 0.7 °C 1025.1 hPa Calm     97% 0.2 mm 91 W/m2
10:13 1.2 °C 0.8 °C 1025.1 hPa SSW 1.4 km/h 1.6 km/h 97% 0.2 mm 98 W/m2
10:18 1.3 °C 0.9 °C 1025.1 hPa ESE 3.2 km/h 4.8 km/h 97% 0.2 mm 109 W/m2
10:23 1.4 °C 1 °C 1025.1 hPa ESE 3.2 km/h 4.8 km/h 97% 0.2 mm 116 W/m2
10:28 1.6 °C 1.2 °C 1025.4 hPa East 1.4 km/h 3.2 km/h 97% 0.2 mm 130 W/m2
10:33 1.7 °C 1.3 °C 1025.1 hPa Calm   1.6 km/h 97% 0.2 mm 134 W/m2
10:38 1.9 °C 1.5 °C 1025.4 hPa East 3.2 km/h 3.2 km/h 97% 0.2 mm 116 W/m2
10:43 1.9 °C 1.5 °C 1025.1 hPa Calm   1.6 km/h 97% 0.2 mm 88 W/m2
10:48 2 °C 1.6 °C 1025.1 hPa Calm     97% 0.2 mm 86 W/m2
10:53 2 °C 1.6 °C 1025.4 hPa ESE 1.4 km/h 3.2 km/h 97% 0.2 mm 81 W/m2
10:58 2.1 °C 1.7 °C 1025.4 hPa Calm     97% 0.2 mm 83 W/m2
11:03 2.1 °C 1.7 °C 1025.4 hPa Calm   3.2 km/h 97% 0.2 mm 93 W/m2
11:08 2.1 °C 1.7 °C 1025.4 hPa Calm     97% 0.0 mm 107 W/m2
11:14 2.2 °C 1.8 °C 1025.4 hPa ESE 1.4 km/h 1.6 km/h 97% 0.0 mm 125 W/m2
11:19 2.2 °C 1.8 °C 1025.4 hPa Calm   1.6 km/h 97% 0.0 mm 127 W/m2
11:24 2.3 °C 1.9 °C 1025.4 hPa Calm   3.2 km/h 97% 0.0 mm 123 W/m2
11:29 2.4 °C 2 °C 1025.4 hPa NE 3.2 km/h 3.2 km/h 97% 0.0 mm 127 W/m2
11:34 2.5 °C 2.1 °C 1025.4 hPa Calm   3.2 km/h 97% 0.0 mm 111 W/m2
11:39 2.6 °C 2.2 °C 1025.4 hPa Calm     97% 0.0 mm 97 W/m2
11:44 2.7 °C 2.3 °C 1025.1 hPa ENE 1.4 km/h 3.2 km/h 97% 0.0 mm 109 W/m2
11:49 2.8 °C 2.4 °C 1025.1 hPa SE 1.4 km/h 4.8 km/h 97% 0.0 mm 149 W/m2
11:54 3 °C 2.6 °C 1025.1 hPa Calm   3.2 km/h 97% 0.0 mm 185 W/m2
11:59 3.2 °C 2.8 °C 1025.1 hPa Calm   3.2 km/h 97% 0.0 mm 125 W/m2
12:04 3.3 °C 2.7 °C 1025.1 hPa ESE 1.4 km/h 3.2 km/h 96% 0.0 mm 120 W/m2
12:09 3.4 °C 2.8 °C 1025.1 hPa Calm     96% 0.0 mm 107 W/m2
12:14 3.6 °C 3 °C 1025.1 hPa Calm   1.6 km/h 96% 0.0 mm 113 W/m2
12:19 3.7 °C 3.1 °C 1025.1 hPa Calm   3.2 km/h 96% 0.0 mm 128 W/m2
12:24 3.8 °C 3.2 °C 1024.7 hPa Calm     96% 0.0 mm 120 W/m2
12:29 3.9 °C 3.2 °C 1024.7 hPa East 1.4 km/h 3.2 km/h 95% 0.0 mm 130 W/m2
12:34 4.1 °C 3.4 °C 1024.7 hPa Calm   3.2 km/h 95% 0.0 mm 123 W/m2
12:39 4.2 °C 3.5 °C 1024.7 hPa Calm   4.8 km/h 95% 0.0 mm 114 W/m2
12:44 4.4 °C 3.5 °C 1024.7 hPa Calm     94% 0.0 mm 116 W/m2
12:49 4.6 °C 3.7 °C 1024.4 hPa East 1.4 km/h 1.6 km/h 94% 0.0 mm 123 W/m2
12:54 4.7 °C 3.7 °C 1024.7 hPa East 1.4 km/h 3.2 km/h 93% 0.0 mm 121 W/m2
12:59 4.8 °C 3.6 °C 1024.7 hPa ENE 4.7 km/h 4.8 km/h 92% 0.0 mm 123 W/m2
13:04 5 °C 3.8 °C 1024.7 hPa Calm   1.6 km/h 92% 0.0 mm 230 W/m2
13:09 5.2 °C 3.9 °C 1024.4 hPa ENE 3.2 km/h 6.4 km/h 91% 0.0 mm 148 W/m2
13:14 5.3 °C 4 °C 1024.4 hPa ENE 3.2 km/h 4.8 km/h 91% 0.0 mm 100 W/m2
13:19 5.4 °C 3.9 °C 1024.4 hPa ENE 1.4 km/h 6.4 km/h 90% 0.0 mm 98 W/m2
13:24 5.5 °C 4 °C 1024.0 hPa Calm     90% 0.0 mm 116 W/m2
13:29 5.6 °C 4.1 °C 1024.0 hPa Calm   1.6 km/h 90% 0.0 mm 107 W/m2
13:34 5.7 °C 4 °C 1024.4 hPa Calm   3.2 km/h 89% 0.0 mm 100 W/m2
13:39 5.8 °C 4.1 °C 1024.4 hPa Calm   3.2 km/h 89% 0.0 mm 90 W/m2
13:44 5.9 °C 4.1 °C 1024.0 hPa Calm   3.2 km/h 88% 0.0 mm 114 W/m2
13:49 6.1 °C 4.3 °C 1024.0 hPa NE 3.2 km/h 3.2 km/h 88% 0.0 mm 90 W/m2
13:54 6.2 °C 4.2 °C 1024.0 hPa Calm   3.2 km/h 87% 0.0 mm 79 W/m2
13:59 6.3 °C 4.3 °C 1024.0 hPa Calm   1.6 km/h 87% 0.0 mm 72 W/m2
14:04 6.4 °C 4.4 °C 1024.0 hPa East 3.2 km/h 4.8 km/h 87% 0.0 mm 77 W/m2
14:09 6.4 °C 4.2 °C 1024.0 hPa ENE 3.2 km/h 4.8 km/h 86% 0.0 mm 74 W/m2
14:14 6.6 °C 4.3 °C 1023.7 hPa Calm   3.2 km/h 85% 0.0 mm 76 W/m2
14:19 6.6 °C 4.3 °C 1023.7 hPa Calm   4.8 km/h 85% 0.0 mm 77 W/m2
14:24 6.7 °C 4.4 °C 1023.7 hPa East 1.4 km/h 1.6 km/h 85% 0.0 mm 76 W/m2
14:29 6.7 °C 4.4 °C 1023.7 hPa Calm   3.2 km/h 85% 0.0 mm 72 W/m2
14:34 6.7 °C 4.4 °C 1023.7 hPa East 3.2 km/h 6.4 km/h 85% 0.0 mm 69 W/m2
14:39 6.8 °C 4.5 °C 1024.0 hPa Calm   3.2 km/h 85% 0.0 mm 67 W/m2
14:44 6.8 °C 4.3 °C 1024.0 hPa East 4.7 km/h 6.4 km/h 84% 0.0 mm 70 W/m2
14:49 6.8 °C 4.3 °C 1023.7 hPa ESE 1.4 km/h 3.2 km/h 84% 0.0 mm 67 W/m2
14:54 6.8 °C 4.3 °C 1024.0 hPa Calm     84% 0.0 mm 70 W/m2
14:59 6.8 °C 4.3 °C 1024.0 hPa ESE 1.4 km/h 4.8 km/h 84% 0.0 mm 70 W/m2
15:04 6.8 °C 4.3 °C 1024.0 hPa ESE 3.2 km/h 3.2 km/h 84% 0.0 mm 67 W/m2
15:09 6.8 °C 4.3 °C 1024.0 hPa Calm   1.6 km/h 84% 0.0 mm 63 W/m2
15:14 6.8 °C 4.5 °C 1024.0 hPa Calm   4.8 km/h 85% 0.0 mm 62 W/m2
15:19 6.8 °C 4.5 °C 1024.0 hPa Calm     85% 0.0 mm 56 W/m2
15:24 6.7 °C 4.4 °C 1023.7 hPa Calm   3.2 km/h 85% 0.0 mm 56 W/m2
15:29 6.7 °C 4.5 °C 1023.7 hPa Calm     86% 0.0 mm 56 W/m2
15:34 6.7 °C 4.5 °C 1023.7 hPa Calm   1.6 km/h 86% 0.0 mm 54 W/m2
15:39 6.6 °C 4.4 °C 1023.7 hPa SSE 1.4 km/h 1.6 km/h 86% 0.0 mm 53 W/m2
15:44 6.6 °C 4.4 °C 1023.7 hPa Calm     86% 0.0 mm 49 W/m2
15:49 6.5 °C 4.3 °C 1023.7 hPa Calm     86% 0.0 mm 46 W/m2
15:54 6.4 °C 4.4 °C 1023.7 hPa Calm     87% 0.0 mm 40 W/m2
15:59 6.4 °C 4.4 °C 1023.7 hPa Calm     87% 0.0 mm 35 W/m2
16:04 6.3 °C 4.3 °C 1024.0 hPa Calm     87% 0.0 mm 30 W/m2
16:09 6.2 °C 4.2 °C 1024.0 hPa Calm     87% 0.0 mm 30 W/m2
16:14 6.1 °C 4.1 °C 1024.0 hPa Calm     87% 0.0 mm 28 W/m2
16:19 6 °C 4 °C 1023.7 hPa Calm     87% 0.0 mm 28 W/m2
16:24 5.9 °C 4.1 °C 1023.7 hPa Calm     88% 0.0 mm 26 W/m2
16:29 5.8 °C 4 °C 1023.7 hPa Calm     88% 0.0 mm 23 W/m2
16:34 5.7 °C 3.9 °C 1023.7 hPa Calm     88% 0.0 mm 21 W/m2
16:40 5.6 °C 3.8 °C 1023.7 hPa Calm     88% 0.0 mm 18 W/m2
16:45 5.6 °C 3.8 °C 1023.7 hPa Calm     88% 0.0 mm 14 W/m2
16:50 5.4 °C 3.7 °C 1024.0 hPa Calm     89% 0.0 mm 11 W/m2
16:55 5.3 °C 3.6 °C 1024.0 hPa Calm     89% 0.0 mm 7 W/m2
17:00 5.2 °C 3.5 °C 1024.0 hPa Calm     89% 0.0 mm 5 W/m2
17:05 5.1 °C 3.4 °C 1023.7 hPa Calm     89% 0.0 mm 0 W/m2
17:10 4.9 °C 3.4 °C 1023.7 hPa Calm     90% 0.0 mm 0 W/m2
17:15 4.8 °C 3.3 °C 1023.7 hPa Calm     90% 0.0 mm 0 W/m2
17:20 4.7 °C 3.2 °C 1024.0 hPa Calm     90% 0.0 mm 0 W/m2
17:25 4.6 °C 3.1 °C 1024.0 hPa Calm     90% 0.0 mm 0 W/m2
17:30 4.5 °C 3.2 °C 1023.7 hPa Calm     91% 0.0 mm 0 W/m2
17:35 4.4 °C 3.1 °C 1023.7 hPa Calm     91% 0.0 mm 0 W/m2
17:40 4.3 °C 3 °C 1023.7 hPa Calm     91% 0.0 mm 0 W/m2
17:45 4.2 °C 2.9 °C 1023.7 hPa Calm     91% 0.0 mm 0 W/m2
17:50 4.1 °C 2.9 °C 1023.7 hPa Calm     92% 0.0 mm 0 W/m2
17:55 4.1 °C 2.9 °C 1024.0 hPa Calm     92% 0.0 mm 0 W/m2
18:00 3.9 °C 2.7 °C 1024.0 hPa Calm     92% 0.0 mm 0 W/m2
18:05 3.8 °C 2.6 °C 1024.0 hPa Calm     92% 0.0 mm 0 W/m2
18:10 3.8 °C 2.6 °C 1024.0 hPa Calm     92% 0.0 mm 0 W/m2
18:15 3.8 °C 2.6 °C 1024.0 hPa Calm     92% 0.0 mm 0 W/m2
18:20 3.7 °C 2.7 °C 1023.7 hPa Calm     93% 0.0 mm 0 W/m2
18:25 3.6 °C 2.6 °C 1023.7 hPa Calm     93% 0.0 mm 0 W/m2
18:30 3.6 °C 2.6 °C 1024.0 hPa Calm     93% 0.0 mm 0 W/m2
18:35 3.5 °C 2.5 °C 1024.0 hPa Calm     93% 0.0 mm 0 W/m2
18:40 3.4 °C 2.4 °C 1024.0 hPa Calm     93% 0.0 mm 0 W/m2
18:45 3.3 °C 2.3 °C 1024.0 hPa Calm     93% 0.0 mm 0 W/m2
18:50 3.3 °C 2.3 °C 1024.0 hPa Calm     93% 0.0 mm 0 W/m2
18:55 3.3 °C 2.4 °C 1024.0 hPa Calm     94% 0.0 mm 0 W/m2
19:00 3.2 °C 2.3 °C 1024.0 hPa Calm     94% 0.0 mm 0 W/m2
19:05 3.2 °C 2.3 °C 1024.4 hPa Calm     94% 0.0 mm 0 W/m2
19:10 3.2 °C 2.3 °C 1024.0 hPa Calm     94% 0.0 mm 0 W/m2
19:15 3.2 °C 2.3 °C 1024.0 hPa Calm     94% 0.0 mm 0 W/m2
19:21 3.2 °C 2.3 °C 1024.0 hPa Calm     94% 0.0 mm 0 W/m2
19:26 3.1 °C 2.2 °C 1024.0 hPa Calm     94% 0.0 mm 0 W/m2
19:31 3.1 °C 2.2 °C 1024.0 hPa Calm     94% 0.0 mm 0 W/m2
19:36 3 °C 2.1 °C 1024.0 hPa Calm     94% 0.0 mm 0 W/m2
19:41 3 °C 2.1 °C 1024.0 hPa Calm     94% 0.0 mm 0 W/m2
19:46 2.9 °C 2 °C 1024.0 hPa Calm     94% 0.0 mm 0 W/m2
19:51 2.9 °C 2 °C 1024.0 hPa Calm     94% 0.0 mm 0 W/m2
19:56 2.8 °C 1.9 °C 1024.0 hPa Calm     94% 0.0 mm 0 W/m2
20:01 2.8 °C 2.1 °C 1024.0 hPa Calm     95% 0.0 mm 0 W/m2
20:06 2.7 °C 1.8 °C 1024.0 hPa Calm     94% 0.0 mm 0 W/m2
20:11 2.7 °C 1.8 °C 1024.0 hPa Calm     94% 0.0 mm 0 W/m2
20:16 2.6 °C 1.9 °C 1024.0 hPa Calm     95% 0.0 mm 0 W/m2
20:21 2.6 °C 1.9 °C 1024.4 hPa Calm     95% 0.0 mm 0 W/m2
20:26 2.7 °C 2 °C 1024.4 hPa Calm     95% 0.0 mm 0 W/m2
20:31 2.7 °C 2 °C 1024.4 hPa Calm     95% 0.0 mm 0 W/m2
20:36 2.7 °C 2 °C 1024.4 hPa Calm     95% 0.0 mm 0 W/m2
20:41 2.7 °C 2 °C 1024.4 hPa Calm     95% 0.0 mm 0 W/m2
20:46 2.6 °C 1.9 °C 1024.4 hPa Calm     95% 0.0 mm 0 W/m2
20:51 2.6 °C 1.9 °C 1024.4 hPa Calm     95% 0.0 mm 0 W/m2
20:56 2.4 °C 1.7 °C 1024.4 hPa Calm     95% 0.0 mm 0 W/m2
21:01 2.4 °C 1.7 °C 1024.4 hPa Calm     95% 0.0 mm 0 W/m2
21:06 2.3 °C 1.6 °C 1024.4 hPa Calm     95% 0.0 mm 0 W/m2
21:11 2.3 °C 1.6 °C 1024.4 hPa Calm     95% 0.0 mm 0 W/m2
21:16 2.2 °C 1.5 °C 1024.7 hPa Calm     95% 0.0 mm 0 W/m2
21:21 2.2 °C 1.5 °C 1024.7 hPa Calm     95% 0.0 mm 0 W/m2
21:26 2.1 °C 1.4 °C 1024.7 hPa Calm     95% 0.0 mm 0 W/m2
21:31 2.1 °C 1.4 °C 1024.7 hPa Calm     95% 0.0 mm 0 W/m2
21:36 1.9 °C 1.2 °C 1024.7 hPa Calm     95% 0.0 mm 0 W/m2
21:41 1.9 °C 1.2 °C 1024.7 hPa Calm     95% 0.0 mm 0 W/m2
21:46 1.8 °C 1.1 °C 1024.7 hPa Calm     95% 0.0 mm 0 W/m2
21:51 1.8 °C 1.1 °C 1024.7 hPa Calm     95% 0.0 mm 0 W/m2
21:56 1.7 °C 1 °C 1024.7 hPa Calm     95% 0.0 mm 0 W/m2
22:01 1.7 °C 1 °C 1024.7 hPa Calm     95% 0.0 mm 0 W/m2
22:06 1.6 °C 0.9 °C 1024.7 hPa Calm     95% 0.0 mm 0 W/m2
22:11 1.6 °C 0.9 °C 1024.7 hPa Calm     95% 0.0 mm 0 W/m2
22:16 1.4 °C 0.7 °C 1024.7 hPa Calm     95% 0.0 mm 0 W/m2
22:21 1.4 °C 0.7 °C 1024.7 hPa Calm     95% 0.0 mm 0 W/m2
22:26 1.3 °C 0.6 °C 1024.7 hPa Calm     95% 0.0 mm 0 W/m2
22:31 1.3 °C 0.6 °C 1024.7 hPa Calm     95% 0.0 mm 0 W/m2
22:36 1.3 °C 0.6 °C 1024.7 hPa Calm     95% 0.0 mm 0 W/m2
22:41 1.2 °C 0.5 °C 1024.7 hPa Calm     95% 0.0 mm 0 W/m2
22:46 1.2 °C 0.5 °C 1024.4 hPa Calm     95% 0.0 mm 0 W/m2
22:51 1.2 °C 0.5 °C 1024.4 hPa Calm     95% 0.0 mm 0 W/m2
22:56 1.1 °C 0.4 °C 1024.4 hPa Calm     95% 0.0 mm 0 W/m2
23:01 1.1 °C 0.4 °C 1024.4 hPa Calm     95% 0.0 mm 0 W/m2
23:06 1 °C 0.3 °C 1024.4 hPa Calm     95% 0.0 mm 0 W/m2
23:11 1 °C 0.3 °C 1024.4 hPa Calm     95% 0.0 mm 0 W/m2
23:16 1 °C 0.4 °C 1024.4 hPa Calm     96% 0.0 mm 0 W/m2
23:21 1 °C 0.4 °C 1024.4 hPa Calm     96% 0.0 mm 0 W/m2
23:26 1 °C 0.4 °C 1024.4 hPa Calm     96% 0.0 mm 0 W/m2
23:31 0.9 °C 0.3 °C 1024.4 hPa Calm     96% 0.0 mm 0 W/m2
23:36 0.9 °C 0.3 °C 1024.4 hPa Calm     96% 0.0 mm 0 W/m2
23:41 0.9 °C 0.3 °C 1024.4 hPa Calm     96% 0.0 mm 0 W/m2
23:46 0.9 °C 0.3 °C 1024.4 hPa Calm     96% 0.0 mm 0 W/m2
23:51 0.9 °C 0.3 °C 1024.4 hPa Calm     96% 0.0 mm 0 W/m2
23:56 0.9 °C 0.3 °C 1024.4 hPa Calm     96% 0.0 mm 0 W/m2
Juneau County Weather
Compliments of Weather Underground - 4 mb